Time;durP1;ratioP1;P1;durP2;ratioP2;P2;SDS_P1;SDS_P2;PMS_P1;PMS_P2;Temp;Humidity;BMP_temperature;BMP_pressure;BME280_temperature;BME280_humidity;BME280_pressure;Samples;Min_cycle;Max_cycle;Signal;HPM_P1;HPM_P2
2022/05/12 00:00:51;;;;;;;3.93;1.07;;;;;;;12.67;72.77;101239.28;5038031;28;20036;-82
2022/05/12 00:03:17;;;;;;;4.85;1.70;;;;;;;12.59;72.76;101242.25;5055262;28;20029;-82
2022/05/12 00:05:43;;;;;;;6.93;1.30;;;;;;;12.51;73.04;101245.25;5054421;28;20174;-82
2022/05/12 00:08:10;;;;;;;5.00;1.33;;;;;;;12.46;73.57;101246.72;5037827;28;20127;-82
2022/05/12 00:10:36;;;;;;;5.80;1.40;;;;;;;12.41;74.00;101251.97;5054365;28;20119;-82
2022/05/12 00:13:04;;;;;;;8.10;1.30;;;;;;;12.35;74.18;101249.31;5054688;28;20029;-82
2022/05/12 00:15:33;;;;;;;4.27;0.97;;;;;;;12.29;73.75;101251.81;5055558;28;20477;-82
2022/05/12 00:18:02;;;;;;;4.07;1.05;;;;;;;12.23;74.06;101249.97;5055466;28;20385;-82
2022/05/12 00:20:27;;;;;;;4.75;1.02;;;;;;;12.19;74.26;101248.72;5037456;28;20099;-82
2022/05/12 00:23:24;;;;;;;4.03;1.05;;;;;;;12.13;73.72;101259.66;5054110;28;20460;-82
2022/05/12 00:25:50;;;;;;;4.53;1.17;;;;;;;12.07;74.39;101254.00;5055420;28;20115;-83
2022/05/12 00:28:18;;;;;;;4.32;1.60;;;;;;;12.04;74.65;101261.78;5055502;28;20102;-83
2022/05/12 00:30:45;;;;;;;9.27;1.58;;;;;;;11.99;75.20;101265.16;5054277;28;20035;-83
2022/05/12 00:33:11;;;;;;;6.22;1.30;;;;;;;11.93;75.40;101261.41;5055483;28;20033;-82
2022/05/12 00:35:37;;;;;;;4.97;1.20;;;;;;;11.86;76.08;101268.72;5054097;28;20556;-82
2022/05/12 00:38:03;;;;;;;6.27;1.40;;;;;;;11.81;75.90;101276.69;5054200;28;20119;-82
2022/05/12 00:40:30;;;;;;;3.28;0.90;;;;;;;11.75;75.75;101280.22;5037043;28;20064;-82
2022/05/12 00:43:00;;;;;;;6.88;1.20;;;;;;;11.70;76.50;101275.44;5054018;28;20060;-82
2022/05/12 00:45:29;;;;;;;7.30;1.40;;;;;;;11.64;76.69;101279.00;5055528;28;20029;-82
2022/05/12 00:47:56;;;;;;;6.97;1.33;;;;;;;11.60;76.94;101277.75;5054672;28;20154;-82
2022/05/12 00:50:29;;;;;;;5.35;1.13;;;;;;;11.55;77.21;101281.09;5053589;28;20090;-82
2022/05/12 00:52:56;;;;;;;6.13;1.50;;;;;;;11.49;77.62;101286.56;5055182;28;20471;-82
2022/05/12 00:55:30;;;;;;;7.30;1.13;;;;;;;11.47;77.82;101283.22;5037101;28;20487;-82
2022/05/12 00:57:58;;;;;;;6.07;1.20;;;;;;;11.42;78.12;101294.72;5054450;28;20039;-82
2022/05/12 01:00:24;;;;;;;3.20;1.20;;;;;;;11.37;78.46;101289.91;5053394;28;20037;-82
2022/05/12 01:02:53;;;;;;;5.88;1.30;;;;;;;11.32;78.74;101289.69;5053056;28;20040;-82
2022/05/12 01:05:21;;;;;;;8.95;1.38;;;;;;;11.31;79.77;101298.06;5053499;28;20036;-82
2022/05/12 01:07:47;;;;;;;7.20;1.43;;;;;;;11.28;79.66;101296.63;5054565;28;20029;-82
2022/05/12 01:10:13;;;;;;;10.65;1.40;;;;;;;11.26;79.92;101309.53;5053614;28;20091;-83
2022/05/12 01:12:44;;;;;;;8.50;1.30;;;;;;;11.25;80.55;101307.91;5053552;28;20029;-82
2022/05/12 01:15:10;;;;;;;8.27;1.47;;;;;;;11.23;80.41;101309.97;5053485;28;20025;-82
2022/05/12 01:17:35;;;;;;;5.15;1.50;;;;;;;11.17;80.48;101305.38;5054321;28;20511;-82
2022/05/12 01:20:01;;;;;;;9.03;1.73;;;;;;;11.14;80.90;101322.09;5052918;28;20064;-82
2022/05/12 01:22:38;;;;;;;5.63;1.27;;;;;;;11.08;81.33;101318.31;5053478;28;20025;-82
2022/05/12 01:25:11;;;;;;;6.63;1.75;;;;;;;11.02;82.06;101322.69;5052990;28;20050;-82
2022/05/12 01:27:37;;;;;;;10.85;1.98;;;;;;;10.97;82.67;101322.50;5054296;28;20029;-82
2022/05/12 01:30:04;;;;;;;9.63;1.83;;;;;;;10.93;82.81;101326.66;5036417;28;20086;-82
2022/05/12 01:32:30;;;;;;;8.77;1.73;;;;;;;10.90;83.20;101328.97;5054194;28;20119;-82
2022/05/12 01:34:56;;;;;;;7.57;1.77;;;;;;;10.86;83.23;101329.34;5053233;28;20071;-82
2022/05/12 01:37:23;;;;;;;11.27;1.60;;;;;;;10.83;84.02;101342.50;5054670;28;20033;-82
2022/05/12 01:39:49;;;;;;;10.85;2.17;;;;;;;10.79;83.83;101342.09;5052631;28;20025;-83
2022/05/12 01:42:15;;;;;;;11.63;2.45;;;;;;;10.74;84.18;101336.41;5054818;28;20064;-83
2022/05/12 01:44:41;;;;;;;13.00;1.87;;;;;;;10.70;83.99;101340.56;5036154;28;20071;-82
2022/05/12 01:47:08;;;;;;;13.07;2.30;;;;;;;10.68;84.57;101346.22;5054521;28;20033;-82
2022/05/12 01:49:33;;;;;;;10.38;2.38;;;;;;;10.62;84.25;101354.34;5053834;28;20028;-83
2022/05/12 01:52:00;;;;;;;9.83;1.70;;;;;;;10.58;84.73;101356.59;5054161;28;20111;-83
2022/05/12 01:54:28;;;;;;;9.75;1.90;;;;;;;10.55;84.67;101348.88;5053845;28;20061;-83
2022/05/12 01:56:53;;;;;;;10.55;2.05;;;;;;;10.50;84.77;101354.09;5052580;28;20065;-82
2022/05/12 01:59:19;;;;;;;7.10;1.80;;;;;;;10.46;85.09;101364.50;5036930;28;20072;-83
2022/05/12 02:01:49;;;;;;;10.45;2.15;;;;;;;10.43;85.34;101366.78;5052793;28;20465;-83
2022/05/12 02:04:15;;;;;;;8.52;2.08;;;;;;;10.40;85.72;101370.72;5052372;28;20127;-82
2022/05/12 02:06:41;;;;;;;9.48;2.17;;;;;;;10.36;85.62;101377.59;5052359;28;20046;-83
2022/05/12 02:09:07;;;;;;;9.90;1.80;;;;;;;10.31;85.95;101370.03;5053297;28;20033;-83
2022/05/12 02:11:33;;;;;;;12.90;1.85;;;;;;;10.30;85.76;101381.09;5052347;28;20419;-83
2022/05/12 02:13:59;;;;;;;9.38;1.90;;;;;;;10.27;86.50;101382.31;5053591;28;20028;-83
2022/05/12 02:16:25;;;;;;;9.80;1.98;;;;;;;10.24;85.91;101387.31;5052105;28;20037;-82
2022/05/12 02:18:54;;;;;;;11.13;1.95;;;;;;;10.21;86.11;101388.53;5052159;28;20036;-83
2022/05/12 02:21:20;;;;;;;11.03;1.90;;;;;;;10.14;86.18;101387.66;5051832;28;20071;-82
2022/05/12 02:23:45;;;;;;;14.32;2.08;;;;;;;10.09;86.23;101384.72;5056551;28;20454;-82
2022/05/12 02:26:11;;;;;;;9.60;2.00;;;;;;;10.06;86.56;101390.53;5056086;28;20485;-83
2022/05/12 02:28:37;;;;;;;9.48;1.90;;;;;;;10.03;86.32;101390.94;5057521;28;20558;-82
2022/05/12 02:31:02;;;;;;;13.73;2.10;;;;;;;9.98;86.83;101394.22;5057254;28;20511;-82
2022/05/12 02:33:28;;;;;;;7.80;2.03;;;;;;;9.93;86.46;101396.72;5057479;28;20384;-83
2022/05/12 02:35:53;;;;;;;10.67;2.13;;;;;;;9.87;87.05;101403.75;5056272;28;20284;-83
2022/05/12 02:38:19;;;;;;;8.80;2.77;;;;;;;9.82;87.23;101400.81;5022653;28;20415;-83
2022/05/12 02:40:45;;;;;;;7.53;2.65;;;;;;;9.76;87.44;101407.03;5056364;28;20041;-83
2022/05/12 02:43:26;;;;;;;8.87;2.50;;;;;;;9.73;88.06;101407.38;5056366;28;20040;-82
2022/05/12 02:45:56;;;;;;;8.45;2.38;;;;;;;9.71;88.14;101404.03;5056229;28;20373;-83
2022/05/12 02:48:26;;;;;;;12.65;2.42;;;;;;;9.69;88.59;101415.06;5055820;28;20029;-83
2022/05/12 02:50:52;;;;;;;8.52;2.72;;;;;;;9.65;88.92;101421.91;5056152;28;20416;-82
2022/05/12 02:53:17;;;;;;;10.97;2.70;;;;;;;9.63;89.44;101421.28;5057103;28;20079;-82
2022/05/12 02:55:43;;;;;;;11.73;2.70;;;;;;;9.59;89.33;101418.09;5056739;28;20063;-83
2022/05/12 02:58:08;;;;;;;9.63;2.50;;;;;;;9.56;89.80;101417.69;5039088;28;20025;-82
2022/05/12 03:00:34;;;;;;;9.53;2.40;;;;;;;9.54;89.66;101423.28;5055828;28;20064;-83
2022/05/12 03:03:00;;;;;;;12.55;3.08;;;;;;;9.50;90.04;101419.28;5055581;28;20025;-82
2022/05/12 03:05:27;;;;;;;8.48;3.10;;;;;;;9.50;90.38;101418.47;5038927;28;20515;-82
2022/05/12 03:07:53;;;;;;;15.13;2.87;;;;;;;9.48;90.66;101424.91;5038893;28;20040;-82
2022/05/12 03:10:19;;;;;;;10.88;3.25;;;;;;;9.46;90.77;101431.53;5039268;28;20033;-83
2022/05/12 03:12:44;;;;;;;16.55;4.13;;;;;;;9.45;90.83;101433.41;5056465;28;20033;-82
2022/05/12 03:15:12;;;;;;;14.87;4.50;;;;;;;9.41;91.37;101436.72;5038818;28;20047;-82
2022/05/12 03:17:38;;;;;;;16.42;4.05;;;;;;;9.40;91.28;101435.84;5038959;28;20048;-82
2022/05/12 03:20:06;;;;;;;12.40;4.30;;;;;;;9.35;92.00;101432.91;5056191;28;20533;-82
2022/05/12 03:22:31;;;;;;;16.90;4.10;;;;;;;9.31;92.07;101434.31;5056546;28;20033;-82
2022/05/12 03:24:57;;;;;;;12.73;4.40;;;;;;;9.27;92.20;101433.00;5055471;28;20086;-82
2022/05/12 03:27:23;;;;;;;17.58;4.30;;;;;;;9.24;92.58;101445.09;5038698;28;20025;-82
2022/05/12 03:29:50;;;;;;;14.53;4.27;;;;;;;9.21;93.30;101441.91;5056609;28;20035;-82
2022/05/12 03:32:15;;;;;;;11.25;3.97;;;;;;;9.17;92.82;101438.75;5022040;28;20370;-82
2022/05/12 03:34:41;;;;;;;12.43;5.00;;;;;;;9.16;92.97;101455.19;5054600;28;20036;-82
2022/05/12 03:37:08;;;;;;;17.95;5.40;;;;;;;9.12;93.16;101450.16;5056593;28;20366;-83
2022/05/12 03:39:35;;;;;;;18.70;5.88;;;;;;;9.09;93.66;101455.09;5054900;28;20503;-82
2022/05/12 03:42:04;;;;;;;19.37;6.53;;;;;;;9.10;94.00;101470.31;5054962;28;20033;-82
2022/05/12 03:44:47;;;;;;;20.70;5.97;;;;;;;9.04;94.70;101471.91;5054644;28;20478;-82
2022/05/12 03:47:28;;;;;;;21.08;5.63;;;;;;;9.05;95.19;101464.63;5026683;28;20037;-83
2022/05/12 03:50:01;;;;;;;16.85;5.75;;;;;;;9.05;94.96;101472.75;5054626;28;20401;-82
2022/05/12 03:52:27;;;;;;;20.17;6.65;;;;;;;9.07;95.37;101470.72;5055055;28;20112;-82
2022/05/12 03:54:53;;;;;;;21.53;7.30;;;;;;;9.07;95.44;101474.25;5054777;28;20095;-82
2022/05/12 03:57:21;;;;;;;28.80;7.38;;;;;;;9.08;96.15;101484.06;5055590;28;20033;-82
2022/05/12 03:59:48;;;;;;;23.35;7.40;;;;;;;9.05;96.10;101481.72;5054492;28;20037;-82
2022/05/12 04:02:14;;;;;;;25.60;7.93;;;;;;;9.07;96.92;101487.78;5054513;28;20044;-82
2022/05/12 04:04:41;;;;;;;22.85;8.00;;;;;;;9.05;96.35;101480.88;5037504;28;20061;-82
2022/05/12 04:07:08;;;;;;;24.37;8.03;;;;;;;9.06;97.39;101490.69;5055690;28;20029;-82
2022/05/12 04:09:33;;;;;;;28.42;8.55;;;;;;;9.08;96.97;101483.19;5055389;28;20025;-82
2022/05/12 04:11:59;;;;;;;24.93;9.23;;;;;;;9.08;97.06;101500.28;5038118;28;20029;-82
2022/05/12 04:14:25;;;;;;;22.73;9.43;;;;;;;9.10;97.47;101503.66;5021141;28;20032;-82
2022/05/12 04:16:51;;;;;;;30.73;9.33;;;;;;;9.11;97.39;101509.91;5054044;28;20120;-82
2022/05/12 04:19:16;;;;;;;31.50;10.55;;;;;;;9.11;98.37;101508.03;5055405;28;20040;-83
2022/05/12 04:21:42;;;;;;;34.40;10.70;;;;;;;9.17;98.53;101511.00;5055124;28;20041;-82
2022/05/12 04:24:09;;;;;;;35.72;11.35;;;;;;;9.18;98.71;101516.22;5037866;28;20040;-82
2022/05/12 04:26:36;;;;;;;31.23;10.30;;;;;;;9.21;98.78;101513.16;5053726;28;20052;-82
2022/05/12 04:29:02;;;;;;;33.07;10.70;;;;;;;9.23;99.05;101526.50;5055557;28;20031;-82
2022/05/12 04:31:28;;;;;;;30.58;10.25;;;;;;;9.26;99.20;101532.38;5037796;28;20025;-83
2022/05/12 04:36:38;;;;;;;32.47;11.13;;;;;;;9.36;98.58;101528.50;5054754;28;20136;-83
2022/05/12 04:39:05;;;;;;;37.17;11.87;;;;;;;9.39;99.54;101531.69;5054085;28;20061;-83
2022/05/12 04:41:31;;;;;;;31.30;11.77;;;;;;;9.42;99.76;101535.88;5055315;28;20021;-83
2022/05/12 04:43:56;;;;;;;30.33;11.18;;;;;;;9.46;99.51;101550.72;5053873;28;20025;-83
2022/05/12 04:46:24;;;;;;;37.77;11.63;;;;;;;9.51;99.26;101545.59;5053955;28;20389;-82
2022/05/12 04:48:49;;;;;;;34.83;12.27;;;;;;;9.54;99.68;101542.50;5054035;28;20139;-83
2022/05/12 04:51:15;;;;;;;36.63;12.30;;;;;;;9.58;99.99;101542.94;5053711;28;20476;-82
2022/05/12 04:53:40;;;;;;;33.83;12.03;;;;;;;9.63;99.06;101543.22;5053545;28;20061;-82
2022/05/12 04:56:06;;;;;;;41.63;12.83;;;;;;;9.66;99.48;101535.53;5053502;28;20272;-82
2022/05/12 04:58:31;;;;;;;34.40;12.47;;;;;;;9.74;99.27;101544.56;5054094;28;20111;-82
2022/05/12 05:00:57;;;;;;;35.70;12.57;;;;;;;9.80;99.65;101543.78;5053183;28;20040;-82
2022/05/12 05:03:22;;;;;;;37.37;14.60;;;;;;;9.85;100.00;101546.78;5054502;28;20469;-82
2022/05/12 05:05:49;;;;;;;35.80;13.27;;;;;;;9.91;99.45;101556.84;5053155;28;20291;-82
2022/05/12 05:08:17;;;;;;;38.20;13.85;;;;;;;9.95;99.67;101558.13;5053309;28;20069;-82
2022/05/12 05:10:43;;;;;;;35.85;13.40;;;;;;;10.00;99.71;101562.97;5053487;28;20075;-82
2022/05/12 05:13:09;;;;;;;38.37;13.67;;;;;;;10.07;99.69;101576.56;5053146;28;20462;-83
2022/05/12 05:15:35;;;;;;;44.00;14.57;;;;;;;10.10;99.41;101577.03;5054091;28;20033;-82
2022/05/12 05:18:01;;;;;;;33.77;13.27;;;;;;;10.19;99.87;101575.03;5036762;28;20040;-80
2022/05/12 05:20:29;;;;;;;39.85;14.88;;;;;;;10.33;99.69;101574.16;5052404;28;20060;-80
2022/05/12 05:22:55;;;;;;;34.70;15.20;;;;;;;10.47;98.41;101577.78;5053974;28;20108;-81
2022/05/12 05:25:22;;;;;;;37.92;14.68;;;;;;;10.56;99.13;101588.50;5036214;28;20120;-81
2022/05/12 05:27:48;;;;;;;40.63;15.05;;;;;;;10.68;98.53;101574.19;5054371;28;20085;-81
2022/05/12 05:30:18;;;;;;;38.63;15.37;;;;;;;10.73;98.34;101595.28;5054041;28;20040;-79
2022/05/12 05:32:44;;;;;;;44.90;16.27;;;;;;;10.81;98.34;101592.44;5052765;28;20040;-80
2022/05/12 05:35:12;;;;;;;42.10;15.70;;;;;;;10.90;97.98;101589.59;5036036;28;20052;-80
2022/05/12 05:37:38;;;;;;;33.75;15.60;;;;;;;11.02;97.16;101599.66;5052636;28;20045;-80
2022/05/12 05:40:05;;;;;;;41.78;16.42;;;;;;;11.05;97.83;101607.41;5053879;28;20150;-81
2022/05/12 05:42:31;;;;;;;38.43;16.13;;;;;;;11.12;97.29;101621.03;5036703;28;20458;-80
2022/05/12 05:44:56;;;;;;;41.22;15.60;;;;;;;11.15;97.41;101611.66;5053782;28;20036;-80
2022/05/12 05:47:21;;;;;;;43.27;16.47;;;;;;;11.24;96.83;101618.59;5036268;28;20488;-81
2022/05/12 05:49:47;;;;;;;40.80;16.73;;;;;;;11.38;96.47;101627.63;5019393;28;20040;-81
2022/05/12 05:54:56;;;;;;;39.80;16.13;;;;;;;11.57;95.67;101634.19;5053456;28;20095;-81
2022/05/12 05:57:31;;;;;;;45.83;18.80;;;;;;;11.56;95.76;101636.09;5051909;28;20112;-81
2022/05/12 05:59:58;;;;;;;40.67;16.67;;;;;;;11.62;95.46;101642.59;5053088;28;20028;-80
2022/05/12 06:02:23;;;;;;;44.80;18.80;;;;;;;11.64;95.39;101651.38;5035699;28;20033;-80
2022/05/12 06:04:49;;;;;;;40.10;17.77;;;;;;;11.68;95.19;101660.81;5053904;28;20113;-81
2022/05/12 06:07:15;;;;;;;46.70;16.95;;;;;;;11.72;95.33;101659.38;5054188;28;20033;-80
2022/05/12 06:09:41;;;;;;;39.40;17.10;;;;;;;11.80;95.07;101662.97;5052982;28;20078;-81
2022/05/12 06:12:09;;;;;;;42.58;17.95;;;;;;;11.83;95.06;101657.09;5035920;28;20032;-82
2022/05/12 06:14:34;;;;;;;36.30;16.80;;;;;;;11.87;94.45;101659.22;5051937;28;20041;-82
2022/05/12 06:17:00;;;;;;;39.80;16.73;;;;;;;11.88;94.35;101660.88;5052007;28;20044;-82
2022/05/12 06:19:25;;;;;;;39.97;16.73;;;;;;;11.96;94.36;101664.47;5053239;28;20086;-82
2022/05/12 06:21:50;;;;;;;39.28;16.92;;;;;;;12.03;94.71;101670.78;5052512;28;20481;-82
2022/05/12 06:24:16;;;;;;;49.10;18.37;;;;;;;12.08;94.06;101677.28;5052966;28;20040;-82
2022/05/12 06:26:41;;;;;;;39.70;17.90;;;;;;;12.17;94.55;101669.78;5035170;28;20491;-82
2022/05/12 06:29:07;;;;;;;40.07;17.37;;;;;;;12.29;93.20;101676.28;5035934;28;20039;-82
2022/05/12 06:31:33;;;;;;;38.73;17.53;;;;;;;12.36;92.49;101673.59;5035628;28;20063;-82
2022/05/12 06:33:59;;;;;;;44.30;17.13;;;;;;;12.38;91.16;101689.69;5052012;28;20033;-82
2022/05/12 06:36:26;;;;;;;38.03;16.70;;;;;;;12.41;91.37;101683.84;5051811;28;20082;-82
2022/05/12 06:38:51;;;;;;;33.67;17.27;;;;;;;12.51;90.99;101680.72;5053092;28;20033;-82
2022/05/12 06:41:17;;;;;;;36.20;17.53;;;;;;;12.70;90.51;101685.34;5035370;28;20044;-82
2022/05/12 06:43:45;;;;;;;35.67;17.50;;;;;;;12.89;89.05;101690.97;5051836;28;20021;-82
2022/05/12 06:46:12;;;;;;;36.83;17.60;;;;;;;13.15;86.75;101704.59;5036056;28;20033;-82
2022/05/12 06:48:38;;;;;;;28.92;15.10;;;;;;;13.30;84.22;101701.63;5052338;28;20025;-82
2022/05/12 06:51:03;;;;;;;31.65;15.15;;;;;;;13.37;84.41;101692.63;5051388;28;20035;-82
2022/05/12 06:53:30;;;;;;;31.43;16.03;;;;;;;13.43;84.00;101695.31;5051592;28;20333;-82
2022/05/12 06:55:55;;;;;;;31.90;16.05;;;;;;;13.46;84.10;101702.25;5051593;28;20025;-82
2022/05/12 06:58:21;;;;;;;23.85;15.02;;;;;;;13.52;81.84;101704.13;5051368;28;20025;-82
2022/05/12 07:00:47;;;;;;;33.60;16.37;;;;;;;13.47;81.72;101714.84;5051476;28;20048;-82
2022/05/12 07:03:13;;;;;;;29.98;15.82;;;;;;;13.41;81.63;101708.34;5051669;28;20068;-82
2022/05/12 07:05:40;;;;;;;27.73;15.10;;;;;;;13.48;80.06;101724.69;5051750;28;20033;-82
2022/05/12 07:08:07;;;;;;;33.10;14.90;;;;;;;13.50;79.47;101719.84;5053024;28;20061;-82
2022/05/12 07:10:33;;;;;;;30.10;15.45;;;;;;;13.49;80.37;101716.31;5055879;28;20029;-82
2022/05/12 07:12:58;;;;;;;33.17;15.50;;;;;;;13.61;80.61;101713.75;5055328;28;20060;-82
2022/05/12 07:15:27;;;;;;;26.63;15.15;;;;;;;13.76;78.93;101716.22;5056315;28;20100;-82
2022/05/12 07:17:56;;;;;;;25.77;14.27;;;;;;;13.95;77.93;101714.47;5056314;28;20020;-81
2022/05/12 07:28:36;;;;;;;25.02;14.35;;;;;;;14.63;72.75;101732.16;5056928;28;20174;-82
2022/05/12 07:31:04;;;;;;;20.90;13.07;;;;;;;14.55;71.98;101733.22;5056274;28;20040;-82
2022/05/12 07:33:39;;;;;;;23.20;13.13;;;;;;;14.51;72.62;101729.28;5056254;28;20033;-82
2022/05/12 07:36:10;;;;;;;21.10;13.33;;;;;;;14.57;73.31;101735.72;5056767;28;20071;-80
2022/05/12 07:38:36;;;;;;;23.63;12.90;;;;;;;14.54;72.40;101733.44;5055662;28;20462;-81
2022/05/12 07:41:01;;;;;;;24.77;13.05;;;;;;;14.48;72.29;101729.72;5054832;28;20068;-81
2022/05/12 07:43:27;;;;;;;20.90;12.63;;;;;;;14.33;71.71;101738.19;5038794;28;20124;-81
2022/05/12 07:45:53;;;;;;;21.10;11.13;;;;;;;14.43;71.55;101745.91;5054840;28;20480;-82
2022/05/12 07:48:19;;;;;;;19.80;11.20;;;;;;;14.56;71.25;101736.81;5022229;28;20021;-81
2022/05/12 07:50:45;;;;;;;23.00;11.10;;;;;;;14.66;68.79;101739.06;5054706;28;20041;-81
2022/05/12 07:53:11;;;;;;;17.70;10.75;;;;;;;14.74;67.63;101739.63;5054842;28;20070;-81
2022/05/12 07:55:37;;;;;;;23.23;11.80;;;;;;;14.70;67.75;101741.16;5038424;28;20037;-81
2022/05/12 07:58:04;;;;;;;23.58;11.00;;;;;;;14.64;65.36;101743.91;5037923;28;20033;-80
2022/05/12 08:00:30;;;;;;;19.55;12.27;;;;;;;14.62;67.89;101744.13;5038581;28;20033;-81
2022/05/12 08:02:57;;;;;;;18.20;11.13;;;;;;;14.73;67.46;101748.91;5054392;28;20029;-80
2022/05/12 08:05:23;;;;;;;20.03;10.53;;;;;;;14.86;65.10;101763.50;5055199;28;20029;-81
2022/05/12 08:07:49;;;;;;;16.73;9.82;;;;;;;14.89;63.87;101757.59;5055662;28;20025;-81
2022/05/12 08:10:16;;;;;;;16.73;9.98;;;;;;;14.93;64.12;101749.81;5037825;28;20127;-81
2022/05/12 08:12:41;;;;;;;14.73;8.82;;;;;;;15.11;62.40;101754.50;5054353;28;20033;-80
2022/05/12 08:15:09;;;;;;;18.57;10.27;;;;;;;15.28;62.82;101755.59;5055001;28;20035;-80
2022/05/12 08:17:35;;;;;;;18.77;9.13;;;;;;;15.28;60.36;101755.59;5055966;28;20045;-80
2022/05/12 08:20:01;;;;;;;17.43;9.77;;;;;;;15.21;61.25;101766.59;5054720;28;20037;-80
2022/05/12 08:22:26;;;;;;;20.35;10.75;;;;;;;15.36;61.26;101755.28;5038690;28;20033;-81
2022/05/12 08:24:52;;;;;;;17.00;10.37;;;;;;;15.52;60.96;101753.06;5037368;28;20029;-81
2022/05/12 08:27:18;;;;;;;18.90;10.47;;;;;;;15.63;59.87;101751.44;5054521;28;20037;-81
2022/05/12 08:29:44;;;;;;;12.40;6.45;;;;;;;15.69;58.41;101758.75;5054114;28;20033;-80
2022/05/12 08:32:09;;;;;;;12.60;6.40;;;;;;;15.68;58.57;101763.38;5054253;28;20390;-80
2022/05/12 08:34:35;;;;;;;13.27;7.43;;;;;;;15.68;58.58;101759.78;5055344;28;20463;-80
2022/05/12 08:37:01;;;;;;;11.73;6.10;;;;;;;16.00;57.74;101754.22;5053873;28;20041;-80
2022/05/12 08:39:26;;;;;;;13.90;6.93;;;;;;;16.41;56.73;101749.88;5037157;28;20033;-80
2022/05/12 08:42:01;;;;;;;16.43;8.60;;;;;;;16.54;56.03;101760.63;5053662;28;20037;-82
2022/05/12 08:44:32;;;;;;;16.98;8.52;;;;;;;16.52;55.29;101754.56;5054920;28;20036;-80
2022/05/12 08:47:00;;;;;;;16.87;8.23;;;;;;;16.34;55.84;101766.38;5053875;28;20029;-80
2022/05/12 08:49:30;;;;;;;12.88;6.45;;;;;;;16.32;54.96;101757.56;5053361;28;20029;-80
2022/05/12 08:52:14;;;;;;;10.30;5.75;;;;;;;16.46;55.11;101756.34;5053506;28;20385;-80
2022/05/12 08:54:43;;;;;;;10.93;5.75;;;;;;;16.77;53.74;101757.13;5053702;28;20029;-81
2022/05/12 08:57:26;;;;;;;14.10;6.55;;;;;;;16.80;53.83;101751.19;5053291;28;20461;-81
2022/05/12 08:59:51;;;;;;;13.10;7.57;;;;;;;16.80;53.54;101764.03;5037632;28;20536;-81
2022/05/12 09:02:45;;;;;;;10.77;6.60;;;;;;;16.71;52.97;101765.44;5053392;28;20124;-81
2022/05/12 09:05:15;;;;;;;10.97;6.00;;;;;;;16.49;52.70;101766.81;5054566;28;20104;-80
2022/05/12 09:07:58;;;;;;;13.77;6.68;;;;;;;16.43;53.90;101775.13;5054356;28;20016;-81
2022/05/12 09:10:44;;;;;;;11.85;6.63;;;;;;;16.44;51.56;101777.63;5052967;28;20091;-81
2022/05/12 09:13:23;;;;;;;14.82;6.28;;;;;;;16.51;51.15;101768.50;5053977;28;20102;-81
2022/05/12 09:16:14;;;;;;;10.57;6.00;;;;;;;16.60;51.38;101773.41;5053023;28;20037;-81
2022/05/12 09:18:40;;;;;;;12.83;6.67;;;;;;;16.74;50.19;101763.09;5052878;28;20025;-83
2022/05/12 09:21:12;;;;;;;12.63;6.32;;;;;;;17.19;50.36;101770.81;5035468;28;20079;-81
2022/05/12 09:23:38;;;;;;;12.60;6.93;;;;;;;17.42;48.42;101776.53;5054303;28;20083;-81
2022/05/12 09:26:31;;;;;;;12.73;6.90;;;;;;;17.39;49.84;101774.28;5052692;28;20461;-80
2022/05/12 09:29:23;;;;;;;16.40;7.43;;;;;;;17.35;50.17;101779.41;5054572;28;20476;-81
2022/05/12 09:32:09;;;;;;;11.07;5.90;;;;;;;17.20;47.95;101766.19;5054478;28;20576;-81
2022/05/12 09:34:36;;;;;;;13.80;6.30;;;;;;;17.19;48.75;101767.22;5038071;28;20052;-80
2022/05/12 09:37:25;;;;;;;13.60;6.32;;;;;;;17.25;48.88;101774.50;5052924;28;20033;-81
2022/05/12 09:39:56;;;;;;;11.07;4.25;;;;;;;17.09;46.16;101761.50;5054250;28;20358;-80
2022/05/12 09:42:28;;;;;;;10.65;5.95;;;;;;;17.12;48.14;101766.50;5052491;28;20028;-80
2022/05/12 09:45:04;;;;;;;10.87;6.27;;;;;;;17.08;47.06;101762.56;5052612;28;20033;-81
2022/05/12 09:47:31;;;;;;;11.73;6.68;;;;;;;17.00;46.55;101766.50;5054625;28;20063;-80
2022/05/12 09:50:16;;;;;;;10.55;6.40;;;;;;;17.14;47.39;101758.88;5052255;28;20491;-81
2022/05/12 09:52:43;;;;;;;8.50;4.57;;;;;;;17.49;45.16;101764.38;5053225;28;20381;-81
2022/05/12 09:55:32;;;;;;;8.02;3.58;;;;;;;17.57;44.01;101763.19;5052316;28;20025;-80
2022/05/12 09:57:59;;;;;;;11.37;4.17;;;;;;;17.53;43.43;101751.84;5051974;28;20075;-81
2022/05/12 10:00:30;;;;;;;8.40;4.55;;;;;;;17.61;44.19;101758.03;5053259;28;20028;-81
2022/05/12 10:08:40;;;;;;;6.68;3.38;;;;;;;18.41;40.96;101760.00;5053873;28;20048;-81
2022/05/12 10:11:08;;;;;;;7.17;2.70;;;;;;;18.34;39.99;101751.06;5019110;28;20029;-82
2022/05/12 10:13:51;;;;;;;6.55;2.80;;;;;;;18.20;41.16;101753.28;5052329;28;20064;-81
2022/05/12 10:16:26;;;;;;;7.93;3.13;;;;;;;18.20;41.88;101764.25;5052805;28;20067;-81
2022/05/12 10:19:08;;;;;;;9.15;4.63;;;;;;;18.16;42.64;101754.84;5051774;28;20064;-81
2022/05/12 10:21:38;;;;;;;10.52;5.10;;;;;;;18.50;42.20;101760.44;5051467;28;20051;-81
2022/05/12 10:24:03;;;;;;;9.18;4.43;;;;;;;18.68;41.80;101753.88;5051922;28;20033;-81
2022/05/12 10:26:38;;;;;;;8.23;4.10;;;;;;;18.76;41.40;101758.13;5052045;28;20036;-82
2022/05/12 10:29:31;;;;;;;9.40;4.13;;;;;;;18.75;41.30;101757.31;5052497;28;20029;-83
2022/05/12 10:32:13;;;;;;;8.68;4.75;;;;;;;19.00;41.01;101758.84;5052430;28;20036;-83
2022/05/12 10:34:55;;;;;;;7.55;4.65;;;;;;;19.17;41.70;101758.00;5051565;28;20033;-83
2022/05/12 10:37:42;;;;;;;11.30;4.77;;;;;;;19.36;40.70;101755.81;5051677;28;20123;-82
2022/05/12 10:40:34;;;;;;;8.05;3.30;;;;;;;19.47;39.76;101757.63;5053197;28;20416;-82
2022/05/12 10:43:27;;;;;;;11.02;3.83;;;;;;;19.04;40.66;101749.00;5053914;28;20032;-82
2022/05/12 10:46:11;;;;;;;5.38;3.40;;;;;;;19.02;39.92;101747.59;5056575;28;20392;-82
2022/05/12 10:48:54;;;;;;;6.78;3.60;;;;;;;18.72;40.18;101762.44;5057541;28;20025;-82
2022/05/12 10:51:38;;;;;;;10.97;3.33;;;;;;;18.70;39.31;101748.13;5055487;28;20033;-81
2022/05/12 10:54:27;;;;;;;6.63;3.15;;;;;;;18.93;38.74;101760.94;5057106;28;20025;-81
2022/05/12 10:56:58;;;;;;;7.93;3.05;;;;;;;18.98;37.67;101763.75;5057128;28;20029;-82
2022/05/12 11:00:05;;;;;;;6.90;3.40;;;;;;;18.99;39.12;101764.59;5055587;28;20082;-82
2022/05/12 11:03:09;;;;;;;6.63;3.53;;;;;;;19.06;39.87;101741.34;5055601;28;20037;-82
2022/05/12 11:05:42;;;;;;;7.10;4.07;;;;;;;19.42;38.94;101741.06;5025236;28;20102;-82
2022/05/12 11:08:24;;;;;;;8.30;3.95;;;;;;;20.12;38.95;101744.16;5057178;28;20087;-82
2022/05/12 11:10:51;;;;;;;9.05;4.50;;;;;;;20.53;37.35;101747.38;5055503;28;20121;-82
2022/05/12 11:13:28;;;;;;;5.97;4.45;;;;;;;20.49;37.03;101724.16;5055266;28;20068;-82
2022/05/12 11:15:56;;;;;;;11.95;3.65;;;;;;;20.59;35.73;101740.81;5055629;28;20033;-82
2022/05/12 11:18:40;;;;;;;7.83;3.67;;;;;;;20.40;35.96;101743.09;5056456;28;20112;-82
2022/05/12 11:21:25;;;;;;;9.15;4.03;;;;;;;20.71;35.91;101729.63;5054656;28;20045;-82
2022/05/12 11:24:04;;;;;;;7.60;3.85;;;;;;;22.68;33.26;101735.88;5055190;28;20033;-82
2022/05/12 11:26:48;;;;;;;6.85;3.63;;;;;;;24.85;29.61;101728.41;5055796;28;20432;-82
2022/05/12 11:32:34;;;;;;;8.07;4.47;;;;;;;26.34;27.65;101731.44;5056321;28;20067;-82
2022/05/12 11:35:12;;;;;;;9.85;6.13;;;;;;;27.47;26.71;101710.03;5055063;28;20025;-82
2022/05/12 11:37:41;;;;;;;5.03;3.58;;;;;;;28.72;22.69;101722.06;5056677;28;20039;-82
2022/05/12 11:40:09;;;;;;;8.10;3.60;;;;;;;28.83;23.16;101707.53;5056039;28;20029;-82
2022/05/12 11:45:42;;;;;;;6.87;3.23;;;;;;;25.39;26.83;101717.34;5055780;28;20087;-82
2022/05/12 11:48:23;;;;;;;6.03;3.08;;;;;;;24.36;27.36;101715.47;5055963;28;20043;-82
2022/05/12 11:51:06;;;;;;;7.03;2.90;;;;;;;23.27;29.02;101715.09;5054466;28;20431;-82
2022/05/12 11:53:53;;;;;;;6.55;2.90;;;;;;;22.81;30.05;101719.81;5055196;28;20040;-82
2022/05/12 11:56:40;;;;;;;6.35;3.10;;;;;;;22.56;30.35;101724.25;5054215;28;20056;-82